Data for 12/22/2009

Time Sea-Level Adjusted Pressure Absolute Pressure Temperature Relative Humidity Dew Point   
(mb) (inHg) (mb) (inHg) (C) (F) (%) (C) (F)
00:05 1008 29.77 837 24.72 1.7 35.1 60 -5.2 22.7
00:10 1008 29.77 837 24.72 1.9 35.5 60 -5.1 22.9
00:15 1008 29.77 837 24.72 1.9 35.4 59 -5.2 22.6
00:20 1008 29.77 837 24.72 2 35.5 60 -5 23
00:25 1008 29.77 837 24.72 1.7 35 61 -5 23
00:30 1008 29.77 837 24.72 1.4 34.6 62 -5.1 22.9
00:35 1008 29.77 837 24.72 1.4 34.5 62 -5.1 22.8
00:40 1008 29.77 837 24.72 1.3 34.4 62 -5.2 22.7
00:45 1008 29.77 837 24.72 1.5 34.7 62 -4.9 23.1
00:50 1008 29.77 837 24.72 1.4 34.5 62 -5.2 22.6
00:55 1008 29.77 837 24.72 1.6 34.9 61 -5.2 22.7
01:00 1008 29.77 837 24.72 1.6 34.9 61 -5 22.9
01:05 1008 29.77 837 24.72 1.7 35 60 -5.2 22.7
01:10 1008 29.77 837 24.72 1.6 34.9 62 -5 23
01:15 1008 29.77 837 24.72 1.7 35 60 -5.2 22.6
01:20 1008 29.77 837 24.72 1.7 35.1 61 -5.1 22.9
01:25 1008 29.77 837 24.72 1.4 34.6 62 -5 23
01:30 1008 29.77 837 24.72 1 33.8 64 -5.1 22.8
01:35 1008 29.77 837 24.72 0.7 33.3 65 -5.2 22.7
01:40 1008 29.77 837 24.72 0.4 32.8 65 -5.3 22.4
01:45 1008 29.77 837 24.72 0.3 32.5 66 -5.4 22.4
01:50 1008 29.77 837 24.72 0.4 32.8 66 -5.2 22.6
01:55 1008 29.77 837 24.72 0.5 32.9 65 -5.2 22.6
02:00 1008 29.77 837 24.72 0.8 33.4 65 -5 22.9
02:05 1008 29.77 837 24.72 0.7 33.3 65 -5.2 22.6
02:10 1008 29.77 837 24.72 0.7 33.3 65 -5.2 22.6
02:15 1008 29.77 837 24.72 0.7 33.3 64 -5.3 22.4
02:20 1008 29.77 837 24.72 0.7 33.3 64 -5.4 22.3
02:25 1008 29.77 837 24.72 0.8 33.5 63 -5.4 22.4
02:30 1008 29.77 837 24.72 0.9 33.6 63 -5.3 22.4
02:35 1008 29.77 837 24.72 0.6 33.1 64 -5.4 22.3
02:40 1008 29.77 837 24.72 0.6 33.1 64 -5.4 22.3
02:45 1008 29.77 837 24.72 0.5 33 64 -5.4 22.3
02:50 1008 29.77 837 24.72 0.5 32.9 65 -5.4 22.4
02:55 1008 29.77 837 24.72 0.5 32.8 64 -5.5 22.1
03:00 1008 29.77 837 24.72 0.4 32.7 65 -5.5 22.1
03:05 1008 29.77 837 24.72 0.5 32.9 65 -5.4 22.3
03:10 1007 29.74 837 24.72 0.5 32.9 65 -5.4 22.3
03:15 1007 29.74 837 24.72 0.4 32.7 66 -5.3 22.4
03:20 1007 29.74 837 24.72 0.2 32.4 66 -5.4 22.3
03:25 1007 29.74 837 24.72 0.5 32.9 64 -5.5 22.2
03:30 1007 29.74 837 24.72 0.7 33.2 64 -5.3 22.4
03:35 1007 29.74 837 24.72 0.6 33 65 -5.3 22.4
03:40 1007 29.74 837 24.72 0.3 32.5 66 -5.4 22.3
03:45 1007 29.74 836 24.69 0.2 32.3 66 -5.5 22.1
03:50 1007 29.74 836 24.69 0.1 32.1 66 -5.5 22.1
03:55 1007 29.74 836 24.69 -0.2 31.7 67 -5.6 21.9
04:00 1007 29.74 836 24.69 -0.4 31.3 67 -5.8 21.6
04:05 1007 29.74 836 24.69 -0.4 31.2 67 -5.7 21.7
04:10 1007 29.74 836 24.69 -0.3 31.4 67 -5.7 21.7
04:15 1007 29.74 836 24.69 -0.2 31.7 66 -5.7 21.8
04:20 1007 29.74 836 24.69 -0.1 31.9 66 -5.7 21.7
04:25 1007 29.74 836 24.69 -0.1 31.9 66 -5.7 21.7
04:30 1007 29.74 836 24.69 -0.1 31.8 65 -6 21.2
04:35 1007 29.74 836 24.69 -0 32 64 -5.9 21.3
04:40 1007 29.74 836 24.69 -0 32 64 -6 21.2
04:45 1007 29.74 836 24.69 0.1 32.1 64 -6 21.1
04:50 1007 29.74 836 24.69 -0 31.9 64 -6 21.3
04:55 1007 29.74 836 24.69 -0 32 64 -6 21.2
05:00 1007 29.74 836 24.69 0.1 32.2 63 -6 21.2
05:05 1007 29.74 836 24.69 0.2 32.4 63 -6.1 21.1
05:10 1007 29.74 836 24.69 0.4 32.8 62 -6 21.1
05:15 1007 29.74 836 24.69 0.5 33 62 -6 21.2
05:20 1007 29.74 836 24.69 0.6 33 62 -5.9 21.4
05:25 1007 29.74 836 24.69 0.7 33.2 61 -5.9 21.3
05:30 1007 29.74 836 24.69 0.8 33.4 61 -5.9 21.4
05:35 1007 29.74 836 24.69 0.7 33.3 62 -5.9 21.5
05:40 1007 29.74 836 24.69 0.6 33 63 -5.8 21.6
05:45 1007 29.74 836 24.69 0.4 32.7 64 -5.7 21.7
05:50 1007 29.74 836 24.69 0.1 32.1 65 -5.7 21.8
05:55 1007 29.74 836 24.69 -0.3 31.4 67 -5.7 21.8
06:00 1007 29.74 836 24.69 -0.7 30.7 70 -5.6 22
06:05 1007 29.74 836 24.69 -1.3 29.6 73 -5.5 22.1
06:10 1007 29.74 836 24.69 -1.9 28.5 75 -5.8 21.5
06:15 1007 29.74 836 24.69 -1.9 28.6 74 -5.8 21.5
06:20 1007 29.74 836 24.69 -1.9 28.5 75 -5.8 21.6
06:25 1007 29.74 836 24.69 -2.1 28.1 76 -5.8 21.6
06:30 1007 29.74 836 24.69 -2.1 28.2 75 -5.9 21.4
06:35 1007 29.74 836 24.69 -2 28.4 75 -5.8 21.6
06:40 1007 29.74 836 24.69 -2 28.4 76 -5.8 21.6
06:45 1007 29.74 836 24.69 -1.9 28.5 76 -5.7 21.7
06:50 1007 29.74 836 24.69 -2 28.4 76 -5.7 21.7
06:55 1007 29.74 836 24.69 -2 28.3 76 -5.7 21.8
07:00 1007 29.74 836 24.69 -2.1 28.3 76 -5.8 21.6
07:05 1007 29.74 836 24.69 -1.9 28.6 74 -5.9 21.4
07:10 1007 29.74 836 24.69 -1.8 28.7 74 -5.8 21.5
07:15 1007 29.74 836 24.69 -1.6 29.1 73 -5.9 21.5
07:20 1007 29.74 836 24.69 -1.3 29.7 73 -5.6 21.9
07:25 1007 29.74 836 24.69 -1.1 30.1 73 -5.4 22.3
07:30 1007 29.74 836 24.69 -1 30.2 72 -5.3 22.4
07:35 1007 29.74 836 24.69 -0.9 30.3 71 -5.5 22.1
07:40 1007 29.74 836 24.69 -1 30.2 72 -5.5 22
07:45 1007 29.74 836 24.69 -1.3 29.7 73 -5.6 21.9
07:50 1007 29.74 836 24.69 -1.6 29.2 74 -5.6 22
07:55 1007 29.74 836 24.69 -1.6 29.2 74 -5.6 21.9
08:00 1007 29.74 836 24.69 -1.4 29.5 74 -5.5 22.1
08:05 1007 29.74 836 24.69 -1.1 30 73 -5.4 22.4
08:10 1007 29.74 836 24.69 -0.9 30.4 72 -5.4 22.2
08:15 1007 29.74 836 24.69 -0.9 30.4 72 -5.4 22.3
08:20 1007 29.74 836 24.69 -1 30.2 72 -5.5 22.2
08:25 1007 29.74 836 24.69 -1.1 30 72 -5.6 21.9
08:30 1007 29.74 837 24.72 -1 30.1 71 -5.6 21.9
08:35 1007 29.74 836 24.69 -1 30.2 71 -5.6 21.8
08:40 1007 29.74 836 24.69 -1 30.2 72 -5.5 22
08:45 1007 29.74 837 24.72 -0.9 30.4 70 -5.8 21.6
08:50 1007 29.74 837 24.72 -0.5 31.1 68 -5.6 21.9
08:55 1007 29.74 837 24.72 -0.2 31.7 67 -5.6 21.9
09:00 1007 29.74 837 24.72 -0.1 31.8 66 -5.7 21.7
09:05 1007 29.74 837 24.72 0.1 32.2 65 -5.7 21.7
09:10 1007 29.74 837 24.72 0.2 32.4 65 -5.5 22
09:15 1007 29.74 836 24.69 0.4 32.8 65 -5.3 22.4
09:20 1007 29.74 836 24.69 0.5 32.8 66 -5.2 22.6
09:25 1007 29.74 836 24.69 0.1 32.2 67 -5.3 22.4
09:30 1007 29.74 837 24.72 0.1 32.1 67 -5.3 22.4
09:35 1007 29.74 837 24.72 0.3 32.5 63 -5.8 21.5
09:40 1007 29.74 837 24.72 0.8 33.4 63 -5.5 22.1
09:45 1007 29.74 837 24.72 1 33.8 64 -5.1 22.8
09:50 1008 29.77 837 24.72 0.9 33.7 63 -5.3 22.5
09:55 1008 29.77 837 24.72 1.3 34.4 62 -5.2 22.6
10:00 1008 29.77 837 24.72 1.9 35.4 60 -5 23
10:05 1008 29.77 837 24.72 2.5 36.4 60 -4.5 24
10:10 1008 29.77 837 24.72 2.2 35.9 60 -4.7 23.5
10:15 1008 29.77 837 24.72 1.7 35 63 -4.7 23.5
10:20 1008 29.77 837 24.72 2.2 36 60 -4.8 23.3
10:25 1008 29.77 837 24.72 2.9 37.1 60 -4.2 24.5
10:30 1008 29.77 837 24.72 2.8 37.1 59 -4.3 24.2
10:35 1008 29.77 837 24.72 2.6 36.7 62 -4 24.8
10:40 1008 29.77 837 24.72 2.5 36.5 62 -4.1 24.6
10:45 1008 29.77 837 24.72 2.5 36.5 61 -4.3 24.3
10:50 1008 29.77 837 24.72 3 37.4 58 -4.3 24.2
10:55 1008 29.77 837 24.72 3.5 38.4 57 -4.2 24.4
11:00 1008 29.77 837 24.72 3.6 38.5 57 -4.2 24.5
11:05 1008 29.77 837 24.72 3.2 37.7 61 -3.7 25.4
11:10 1008 29.77 837 24.72 2.6 36.7 60 -4.3 24.2
11:15 1008 29.77 837 24.72 2.7 36.9 60 -4.4 24.1
11:20 1008 29.77 837 24.72 1.2 34.2 67 -4.3 24.2
11:25 1008 29.77 837 24.72 1.2 34.2 66 -4.5 23.9
11:30 1008 29.77 837 24.72 1.9 35.4 63 -4.4 24
11:35 1008 29.77 837 24.72 1.5 34.7 64 -4.6 23.7
11:40 1008 29.77 837 24.72 1.5 34.8 64 -4.5 23.9
11:45 1008 29.77 837 24.72 1.3 34.4 64 -4.7 23.5
11:50 1008 29.77 837 24.72 1.2 34.1 65 -4.6 23.6
11:55 1008 29.77 837 24.72 1.4 34.6 64 -4.7 23.6
12:00 1008 29.77 837 24.72 1.4 34.6 65 -4.5 24
12:05 1008 29.77 837 24.72 0.9 33.7 66 -4.7 23.6
12:10 1008 29.77 837 24.72 1.3 34.3 66 -4.4 24.1
12:15 1008 29.77 837 24.72 1.6 35 64 -4.5 23.9
12:20 1008 29.77 837 24.72 1.6 34.8 64 -4.5 23.8
12:25 1008 29.77 837 24.72 1.8 35.2 63 -4.5 23.9
12:30 1008 29.77 837 24.72 2.2 36 62 -4.3 24.3
12:35 1008 29.77 837 24.72 2.5 36.4 61 -4.4 24.1
12:40 1008 29.77 837 24.72 2.5 36.5 60 -4.5 23.9
12:45 1008 29.77 837 24.72 2.4 36.3 61 -4.4 24
12:50 1008 29.77 837 24.72 2.2 36 62 -4.3 24.2
12:55 1008 29.77 837 24.72 2.1 35.7 66 -3.7 25.3
13:00 1008 29.77 837 24.72 1.7 35.1 67 -3.8 25.1
13:05 1008 29.77 838 24.75 1.8 35.2 67 -3.7 25.3
13:10 1008 29.77 838 24.75 1.7 35.1 67 -3.7 25.3
13:15 1008 29.77 838 24.75 2 35.5 66 -3.6 25.5
13:20 1008 29.77 838 24.75 2.2 35.9 65 -3.7 25.4
13:25 1008 29.77 838 24.75 2.2 35.9 65 -3.6 25.5
13:30 1009 29.8 838 24.75 2.2 35.9 66 -3.4 25.8
13:35 1009 29.8 838 24.75 1.7 35.1 68 -3.6 25.5
13:40 1009 29.8 838 24.75 1.5 34.8 68 -3.8 25.1
13:45 1009 29.8 838 24.75 1.7 35 67 -3.8 25.2
13:50 1009 29.8 838 24.75 1.8 35.2 66 -3.9 25
13:55 1009 29.8 838 24.75 2.1 35.7 65 -3.7 25.3
14:00 1009 29.8 838 24.75 2.6 36.7 64 -3.6 25.5
14:05 1009 29.8 838 24.75 2.6 36.7 64 -3.5 25.7
14:10 1009 29.8 838 24.75 2.2 36 66 -3.4 25.8
14:15 1009 29.8 838 24.75 1.5 34.7 70 -3.3 26.1
14:20 1009 29.8 838 24.75 1.4 34.5 69 -3.7 25.4
14:25 1009 29.8 838 24.75 1.8 35.2 68 -3.6 25.6
14:30 1009 29.8 838 24.75 1.7 35.1 69 -3.4 25.9
14:35 1009 29.8 838 24.75 1.4 34.5 71 -3.3 26
14:40 1009 29.8 838 24.75 1 33.9 73 -3.3 26
14:45 1009 29.8 838 24.75 0.9 33.7 73 -3.4 25.9
14:50 1009 29.8 839 24.78 0.5 32.9 76 -3.3 26
14:55 1009 29.8 839 24.78 0.3 32.6 74 -3.7 25.3
15:00 1009 29.8 839 24.78 0.5 32.9 75 -3.4 25.9
15:05 1010 29.83 839 24.78 0.6 33 75 -3.4 25.9
15:10 1010 29.83 839 24.78 0.6 33 75 -3.4 25.9
15:15 1010 29.83 839 24.78 0.3 32.6 76 -3.4 25.9
15:20 1010 29.83 839 24.78 0.2 32.3 76 -3.5 25.7
15:25 1010 29.83 839 24.78 0 32.1 77 -3.6 25.6
15:30 1010 29.83 839 24.78 0.1 32.2 77 -3.4 25.8
15:35 1010 29.83 839 24.78 -0 32 77 -3.6 25.5
15:40 1010 29.83 839 24.78 0.2 32.4 76 -3.6 25.6
15:45 1010 29.83 839 24.78 0.1 32.1 77 -3.5 25.7
15:50 1010 29.83 839 24.78 -0.2 31.7 78 -3.6 25.6
15:55 1010 29.83 839 24.78 0 32 77 -3.5 25.7
16:00 1010 29.83 839 24.78 -0.3 31.5 79 -3.5 25.7
16:05 1010 29.83 839 24.78 -0.4 31.3 79 -3.6 25.5
16:10 1010 29.83 839 24.78 -0.3 31.5 78 -3.7 25.4
16:15 1010 29.83 839 24.78 -0.1 31.7 77 -3.6 25.5
16:20 1010 29.83 840 24.81 -0.1 31.8 78 -3.5 25.6
16:25 1010 29.83 840 24.81 -0.2 31.6 79 -3.5 25.8
16:30 1010 29.83 840 24.81 -0.4 31.3 80 -3.4 25.8
16:35 1011 29.85 840 24.81 -0.5 31.1 80 -3.6 25.6
16:40 1011 29.85 840 24.81 -0.5 31.2 79 -3.6 25.5
16:45 1011 29.85 840 24.81 -0.3 31.5 78 -3.6 25.5
16:50 1011 29.85 840 24.81 -0 32 78 -3.5 25.8
16:55 1011 29.85 840 24.81 -0.2 31.7 79 -3.4 25.8
17:00 1011 29.85 840 24.81 -0.4 31.3 80 -3.5 25.8
17:05 1011 29.85 840 24.81 -0.5 31.1 80 -3.5 25.6
17:10 1011 29.85 840 24.81 -0.6 30.9 81 -3.5 25.7
17:15 1011 29.85 840 24.81 -0.6 30.9 81 -3.5 25.7
17:20 1011 29.85 840 24.81 -0.8 30.6 82 -3.5 25.7
17:25 1011 29.85 840 24.81 -1 30.2 83 -3.6 25.5
17:30 1011 29.85 841 24.83 -0.9 30.4 82 -3.7 25.4
17:35 1011 29.85 841 24.83 -0.9 30.4 80 -3.9 25
17:40 1011 29.85 841 24.83 -0.9 30.4 80 -4 24.9
17:45 1012 29.88 841 24.83 -0.9 30.3 79 -4.1 24.7
17:50 1012 29.88 841 24.83 -1 30.2 79 -4.2 24.5
17:55 1012 29.88 841 24.83 -1.2 29.8 80 -4.2 24.4
18:00 1012 29.88 841 24.83 -1.5 29.2 81 -4.3 24.2
18:05 1012 29.88 841 24.83 -1.6 29.1 80 -4.6 23.7
18:10 1012 29.88 841 24.83 -1.4 29.5 79 -4.6 23.7
18:15 1012 29.88 841 24.83 -1.2 29.8 78 -4.6 23.8
18:20 1012 29.88 841 24.83 -1.2 29.8 78 -4.7 23.6
18:25 1012 29.88 841 24.83 -1.3 29.6 79 -4.6 23.8
18:30 1012 29.88 841 24.83 -1.4 29.4 79 -4.6 23.7
18:35 1012 29.88 842 24.86 -1.4 29.4 79 -4.7 23.6
18:40 1012 29.88 842 24.86 -1.4 29.5 78 -4.7 23.6
18:45 1012 29.88 842 24.86 -1.5 29.3 79 -4.7 23.6
18:50 1013 29.91 842 24.86 -1.7 28.9 80 -4.7 23.5
18:55 1013 29.91 842 24.86 -2 28.4 80 -5 23.1
19:00 1013 29.91 842 24.86 -2.1 28.2 80 -5.1 22.8
19:05 1013 29.91 842 24.86 -2.2 28 81 -5.1 22.8
19:10 1013 29.91 842 24.86 -2.2 28 80 -5.2 22.7
19:15 1013 29.91 842 24.86 -2.3 27.8 81 -5.1 22.8
19:20 1013 29.91 842 24.86 -2.5 27.5 82 -5.2 22.7
19:25 1013 29.91 842 24.86 -2.6 27.3 83 -5.2 22.6
19:30 1013 29.91 842 24.86 -2.6 27.2 82 -5.3 22.5
19:35 1013 29.91 842 24.86 -2.7 27.1 82 -5.4 22.2
19:40 1013 29.91 842 24.86 -2.5 27.5 80 -5.5 22.2
19:45 1013 29.91 842 24.86 -2.5 27.5 81 -5.3 22.5
19:50 1013 29.91 842 24.86 -2.6 27.4 82 -5.3 22.4
19:55 1013 29.91 842 24.86 -2.7 27.2 82 -5.3 22.5
20:00 1013 29.91 842 24.86 -2.6 27.4 82 -5.2 22.6
20:05 1013 29.91 842 24.86 -2.6 27.3 82 -5.2 22.6
20:10 1013 29.91 842 24.86 -2.5 27.5 81 -5.2 22.6
20:15 1013 29.91 842 24.86 -2.7 27.2 83 -5.2 22.7
20:20 1013 29.91 842 24.86 -2.9 26.8 84 -5.2 22.7
20:25 1013 29.91 842 24.86 -2.7 27.1 83 -5.2 22.7
20:30 1013 29.91 842 24.86 -2.9 26.9 85 -5.1 22.9
20:35 1013 29.91 842 24.86 -2.9 26.9 84 -5.1 22.8
20:40 1013 29.91 842 24.86 -2.9 26.7 85 -5.2 22.7
20:45 1013 29.91 842 24.86 -3 26.6 85 -5.1 22.8
20:50 1013 29.91 842 24.86 -2.8 27 84 -5.2 22.7
20:55 1013 29.91 842 24.86 -2.6 27.4 83 -5.1 22.8
21:00 1013 29.91 843 24.89 -2.4 27.7 82 -5 23
21:05 1013 29.91 843 24.89 -2.4 27.7 82 -5.1 22.8
21:10 1013 29.91 843 24.89 -2.5 27.5 81 -5.3 22.4
21:15 1013 29.91 843 24.89 -2.9 26.9 81 -5.6 21.9
21:20 1014 29.94 843 24.89 -3.3 26 83 -5.8 21.6
21:25 1014 29.94 843 24.89 -3.5 25.6 83 -5.9 21.3
21:30 1014 29.94 843 24.89 -3.6 25.5 84 -6 21.2
21:35 1014 29.94 843 24.89 -3.7 25.3 84 -6 21.1
21:40 1014 29.94 843 24.89 -3.9 25 85 -6 21.2
21:45 1014 29.94 843 24.89 -3.9 25 85 -6.1 21.1
21:50 1014 29.94 843 24.89 -4 24.8 85 -6.1 20.9
21:55 1014 29.94 843 24.89 -4.1 24.7 86 -6.1 21
22:00 1014 29.94 843 24.89 -4.1 24.5 85 -6.2 20.8
22:05 1014 29.94 843 24.89 -4.4 24.1 86 -6.4 20.6
22:10 1014 29.94 843 24.89 -4.4 24.1 86 -6.3 20.6
22:15 1014 29.94 843 24.89 -4.3 24.2 85 -6.4 20.4
22:20 1014 29.94 843 24.89 -4.4 24.1 86 -6.4 20.4
22:25 1014 29.94 843 24.89 -4.4 24.1 85 -6.5 20.3
22:30 1014 29.94 843 24.89 -4.4 24.1 86 -6.4 20.4
22:35 1014 29.94 843 24.89 -4.6 23.8 87 -6.5 20.3
22:40 1014 29.94 843 24.89 -4.8 23.3 88 -6.6 20.2
22:45 1014 29.94 843 24.89 -4.7 23.5 87 -6.6 20.2
22:50 1014 29.94 843 24.89 -4.6 23.8 87 -6.5 20.3
22:55 1014 29.94 843 24.89 -4.8 23.4 88 -6.5 20.4
23:00 1014 29.94 843 24.89 -4.7 23.5 88 -6.4 20.5
23:05 1014 29.94 843 24.89 -4.5 23.8 86 -6.5 20.3
23:10 1014 29.94 843 24.89 -4.7 23.6 87 -6.5 20.3
23:15 1014 29.94 843 24.89 -4.7 23.5 88 -6.5 20.4
23:20 1014 29.94 843 24.89 -5 23.1 89 -6.5 20.4
23:25 1014 29.94 843 24.89 -5 23.1 89 -6.5 20.3
23:30 1014 29.94 843 24.89 -4.9 23.3 88 -6.5 20.3
23:35 1014 29.94 843 24.89 -4.8 23.3 88 -6.4 20.4
23:40 1014 29.94 843 24.89 -4.9 23.3 89 -6.4 20.4
23:45 1014 29.94 843 24.89 -4.8 23.3 89 -6.4 20.4
23:50 1014 29.94 843 24.89 -4.9 23.2 89 -6.5 20.4
23:55 1014 29.94 843 24.89 -4.9 23.1 89 -6.5 20.4
24:00 1014 29.94 843 24.89 -4.9 23.1 89 -6.5 20.3